South Woodstock, Connecticut
Current Conditions -  °F | °C
As of 6:52 AM on Sunday 25 Jan 2015 (Local Time) from KIJD Reporting Station
Broken Clouds Broken Clouds  
Wind Chill: 26°   Ceiling: 5000
Heat Index: 31°   Visibility: 10mi
Dew Point: 25°   Wind: 5mph
Humidity: 79%   Direction: 240°WSW
Pressure: 29.56"   Gusts: NA
Location:  41.93°N, 71.96°W
Report Text: KIJD 251152Z AUTO 24004KT 10SM FEW043 BKN050 BKN065 M01/M04 A2956 RMK AO2 SLP011 70029 T10061039 10000 21011 53023 $
Loading
Personal Weather Stations






























Interactive Weather Map New forecast layout! Learn more

10-Day Weather Forecast

Advertisements
Track Severe Weather on mobile